»·PEaware :: N725H KBUR-KLAS

N725H :: KBUR-KLAS

FLIGHT INFORMATION

Flight Status: Arrived
Operator: Privately registered:
United States
More flights under this callsign
Pilot: Isaac H. (24985)
Aircraft: BOEING 737-800
(B738)
More flights by this aircraft type
Origin: KBUR Bob Hope-Burbank
United States
Destination: KLAS McCarran Intl
United States
More flights between these airports :: More routes between these airports
Route: SLAPP1 MISEN KEPEC6
File this flight plan on PilotEdge
Remarks: I-5 Rating
Altitude:
(Current/Filed)
25,000ft
Speed:
(Current/Filed)
300kts
Departed: 24-Mar-20 06:47 PM
Arrived: 24-Mar-20 07:35 PM
Distance/Time
Traveled:
193nm/0:48
Distance/Time
To Go:
Arrived

Flight Plot

Page will automatically refresh every two minutes.

Flight plan parsing failed; only flown route is shown


Map Options




Map Legend


Flown Route
Filed Route
Departure Airport
Arrival Airport
Navaid (VOR, NDB)
Fix

Horizontal Profiles

Position Reports

Time Latitude Longitude Heading Altitude Ground
Speed
24-Mar-20 18:28 34.200215 -118.358845 258 728ft 0kts
24-Mar-20 18:29 34.200215 -118.358845 258 728ft 0kts
24-Mar-20 18:30 34.200215 -118.358845 258 728ft 0kts
24-Mar-20 18:31 34.200215 -118.358845 258 728ft 0kts
24-Mar-20 18:32 34.200215 -118.358845 258 728ft 0kts
24-Mar-20 18:33 34.200215 -118.358845 258 728ft 0kts
24-Mar-20 18:33 34.200215 -118.358845 258 728ft 0kts
24-Mar-20 18:35 34.200215 -118.358845 258 728ft 0kts
24-Mar-20 18:36 34.200215 -118.358845 258 728ft 0kts
24-Mar-20 18:36 34.200215 -118.358845 258 728ft 0kts
24-Mar-20 18:37 34.200215 -118.358845 258 728ft 0kts
24-Mar-20 18:39 34.200215 -118.358845 258 728ft 0kts
24-Mar-20 18:40 34.200215 -118.358845 258 728ft 0kts
24-Mar-20 18:40 34.200215 -118.358845 258 728ft 0kts
24-Mar-20 18:41 34.200215 -118.358845 258 728ft 0kts
24-Mar-20 18:42 34.200215 -118.358845 258 728ft 0kts
24-Mar-20 18:43 34.200215 -118.358845 258 728ft 0kts
24-Mar-20 18:44 34.200214 -118.358845 258 728ft 0kts
24-Mar-20 18:45 34.200703 -118.358406 347 729ft 29kts
24-Mar-20 18:46 34.207956 -118.360420 347 757ft 46kts
24-Mar-20 18:47 34.211729 -118.361345 10 774ft 0kts
24-Mar-20 18:48 34.211758 -118.361339 10 775ft 2kts
24-Mar-20 18:49 34.211023 -118.360117 167 771ft 2kts
24-Mar-20 18:50 34.210951 -118.360096 166 771ft 11kts
24-Mar-20 18:51 34.176055 -118.350921 168 1875ft 172kts
24-Mar-20 18:52 34.131033 -118.357442 220 3358ft 180kts
24-Mar-20 18:53 34.093626 -118.400170 222 4897ft 185kts
24-Mar-20 18:54 34.056596 -118.442964 247 6359ft 186kts
24-Mar-20 18:55 34.092017 -118.476729 11 8054ft 232kts
24-Mar-20 18:56 34.164683 -118.447305 12 9604ft 307kts
24-Mar-20 18:57 34.246822 -118.416724 13 11078ft 311kts
24-Mar-20 18:58 34.336636 -118.381215 12 12590ft 364kts
24-Mar-20 18:59 34.434247 -118.343244 11 14072ft 373kts
24-Mar-20 19:00 34.524544 -118.276392 39 15588ft 403kts
24-Mar-20 19:01 34.610187 -118.185914 34 17055ft 415kts
24-Mar-20 19:02 34.672702 -118.065461 74 18796ft 443kts
24-Mar-20 19:03 34.693920 -117.918783 87 20477ft 457kts
24-Mar-20 19:04 34.704096 -117.762149 88 22203ft 474kts
24-Mar-20 19:05 34.710871 -117.599475 90 23958ft 488kts
24-Mar-20 19:06 34.734883 -117.433711 73 25105ft 507kts
24-Mar-20 19:07 34.777667 -117.270813 72 25096ft 505kts
24-Mar-20 19:08 34.821814 -117.104018 72 25081ft 527kts
24-Mar-20 19:09 34.867048 -116.932195 72 25069ft 540kts
24-Mar-20 19:10 34.916591 -116.758011 65 25072ft 548kts
24-Mar-20 19:11 34.993973 -116.597897 53 25075ft 553kts
24-Mar-20 19:12 35.080505 -116.443381 51 24101ft 526kts
24-Mar-20 19:13 35.169980 -116.320797 42 23732ft 455kts
24-Mar-20 19:14 35.256471 -116.211410 41 21987ft 437kts
24-Mar-20 19:15 35.339190 -116.107135 42 20453ft 419kts
24-Mar-20 19:16 35.418759 -116.006741 42 18943ft 405kts
24-Mar-20 19:17 35.495827 -115.909087 42 17438ft 391kts
24-Mar-20 19:18 35.569931 -115.815037 43 15950ft 378kts
24-Mar-20 19:19 35.641781 -115.723601 43 14463ft 366kts
24-Mar-20 19:20 35.710869 -115.635006 44 13052ft 345kts
24-Mar-20 19:21 35.786152 -115.576312 5 12193ft 308kts
24-Mar-20 19:22 35.867855 -115.569333 356 12495ft 296kts
24-Mar-20 19:23 35.950726 -115.560253 17 13032ft 308kts
24-Mar-20 19:24 36.000479 -115.473261 69 12589ft 329kts
24-Mar-20 19:25 36.028078 -115.366687 89 11017ft 304kts
24-Mar-20 19:26 36.023100 -115.263788 99 9497ft 296kts
24-Mar-20 19:27 36.016511 -115.171733 99 9023ft 258kts
24-Mar-20 19:28 36.046869 -115.093126 41 8033ft 261kts
24-Mar-20 19:29 36.100598 -115.035025 41 6698ft 251kts
24-Mar-20 19:30 36.156378 -115.040656 286 5088ft 224kts
24-Mar-20 19:31 36.164363 -115.111734 254 3982ft 190kts
24-Mar-20 19:32 36.126272 -115.140484 206 2878ft 162kts
24-Mar-20 19:33 36.089889 -115.161997 204 2129ft 101kts
24-Mar-20 19:34 36.083565 -115.166940 235 2160ft 8kts
24-Mar-20 19:35 36.079930 -115.170162 205 2177ft 22kts
24-Mar-20 19:36 36.078450 -115.171309 221 2185ft 0kts
24-Mar-20 19:37 36.078450 -115.171309 221 2185ft 0kts
24-Mar-20 19:38 36.078450 -115.171309 221 2185ft 0kts

Navigation Log

Ident Type
Flight plan parsing failed, navigation log unavailable